Time;durP1;ratioP1;P1;durP2;ratioP2;P2;SDS_P1;SDS_P2;PMS_P1;PMS_P2;Temp;Humidity;BMP_temperature;BMP_pressure;BME280_temperature;BME280_humidity;BME280_pressure;Samples;Min_cycle;Max_cycle;Signal;HPM_P1;HPM_P2
2021/04/29 00:01:42;;;;;;;23.55;16.58;;;12.40;99.90;;;;;;4954165;28;20122;-64
2021/04/29 00:04:09;;;;;;;17.67;14.13;;;12.50;99.90;;;;;;4954764;28;20118;-64
2021/04/29 00:06:34;;;;;;;16.45;14.02;;;12.50;99.90;;;;;;4971582;28;20026;-64
2021/04/29 00:09:00;;;;;;;13.85;12.25;;;12.40;99.90;;;;;;4972230;28;20022;-63
2021/04/29 00:11:26;;;;;;;14.80;13.20;;;12.50;99.90;;;;;;4954663;28;20380;-63
2021/04/29 00:13:51;;;;;;;13.98;10.90;;;12.50;99.90;;;;;;4971028;28;20242;-64
2021/04/29 00:16:17;;;;;;;13.65;11.00;;;12.60;99.90;;;;;;4971909;28;20034;-64
2021/04/29 00:18:43;;;;;;;14.75;12.48;;;12.60;99.90;;;;;;4954083;28;20054;-64
2021/04/29 00:21:09;;;;;;;13.15;11.23;;;12.60;99.90;;;;;;4972054;28;20078;-64
2021/04/29 00:23:34;;;;;;;15.02;11.98;;;12.60;99.90;;;;;;4957662;28;20058;-65
2021/04/29 00:26:00;;;;;;;14.50;11.50;;;12.60;99.90;;;;;;4975737;28;20030;-64
2021/04/29 00:28:26;;;;;;;15.23;12.55;;;12.60;99.90;;;;;;4958497;28;20103;-63
2021/04/29 00:30:52;;;;;;;15.55;12.82;;;12.40;99.90;;;;;;4975053;28;20031;-64
2021/04/29 00:33:17;;;;;;;13.15;11.75;;;12.40;99.90;;;;;;4958494;28;20112;-64
2021/04/29 00:35:44;;;;;;;12.88;10.95;;;12.40;99.90;;;;;;4957962;28;20023;-64
2021/04/29 00:38:09;;;;;;;14.70;12.55;;;12.40;99.90;;;;;;4958639;28;20026;-64
2021/04/29 00:40:35;;;;;;;14.82;12.80;;;12.30;99.90;;;;;;4975225;28;20078;-64
2021/04/29 00:43:01;;;;;;;11.82;10.60;;;12.40;99.90;;;;;;4975531;28;20030;-63
2021/04/29 00:45:27;;;;;;;12.05;10.27;;;12.40;99.90;;;;;;4974455;28;20520;-63
2021/04/29 00:47:53;;;;;;;10.48;9.13;;;12.40;99.90;;;;;;4973589;28;20411;-63
2021/04/29 00:50:23;;;;;;;9.48;8.32;;;12.30;99.90;;;;;;4956861;28;20425;-64
2021/04/29 00:52:49;;;;;;;11.13;8.88;;;12.30;99.90;;;;;;4973441;28;20033;-63
2021/04/29 00:55:14;;;;;;;10.00;9.00;;;12.20;99.90;;;;;;4974647;28;20110;-64
2021/04/29 00:57:40;;;;;;;9.35;8.10;;;12.30;99.90;;;;;;4956280;28;20449;-64
2021/04/29 01:00:08;;;;;;;10.95;8.60;;;12.30;99.90;;;;;;4956640;28;20130;-64
2021/04/29 01:02:37;;;;;;;11.48;8.43;;;12.30;99.90;;;;;;4973994;28;20045;-63
2021/04/29 01:05:18;;;;;;;10.20;7.22;;;12.30;99.90;;;;;;4973985;28;20035;-63
2021/04/29 01:07:49;;;;;;;9.40;8.00;;;12.20;99.90;;;;;;4973636;28;20031;-64
2021/04/29 01:10:19;;;;;;;;;;;12.30;99.90;;;;;;4957334;28;20026;-63
2021/04/29 01:13:03;;;;;;;9.48;7.70;;;12.10;99.90;;;;;;4955696;28;19906;-63
2021/04/29 01:15:30;;;;;;;11.90;8.25;;;12.10;99.90;;;;;;4956671;28;20054;-62
2021/04/29 01:17:56;;;;;;;11.85;10.23;;;12.00;99.90;;;;;;4956044;28;20446;-63
2021/04/29 01:20:29;;;;;;;8.65;7.78;;;12.00;99.90;;;;;;4956365;28;20030;-63
2021/04/29 01:23:14;;;;;;;11.63;8.18;;;12.10;99.90;;;;;;4973312;28;20023;-63
2021/04/29 01:25:42;;;;;;;7.03;6.28;;;12.00;99.90;;;;;;4973323;28;20034;-63
2021/04/29 01:28:09;;;;;;;10.05;6.95;;;11.90;99.90;;;;;;4974226;28;20066;-65
2021/04/29 01:30:38;;;;;;;6.93;5.88;;;12.00;99.90;;;;;;4974140;28;20027;-63
2021/04/29 01:33:04;;;;;;;6.22;5.53;;;12.00;99.90;;;;;;4973386;28;20035;-63
2021/04/29 01:35:30;;;;;;;8.00;6.60;;;11.90;99.90;;;;;;4956314;28;20460;-64
2021/04/29 01:37:57;;;;;;;7.63;5.70;;;11.90;99.90;;;;;;4955280;28;20050;-63
2021/04/29 01:40:23;;;;;;;8.70;5.72;;;12.00;99.90;;;;;;4973585;28;20376;-63
2021/04/29 01:42:49;;;;;;;6.75;5.82;;;12.00;99.90;;;;;;4951637;28;604648;-62
2021/04/29 01:45:15;;;;;;;7.95;5.30;;;12.10;99.90;;;;;;4974606;28;20034;-63
2021/04/29 01:47:41;;;;;;;6.80;5.35;;;12.10;99.90;;;;;;4956267;28;20031;-63
2021/04/29 01:50:10;;;;;;;5.43;4.60;;;12.10;99.90;;;;;;4974316;28;20097;-63
2021/04/29 01:52:37;;;;;;;8.32;6.15;;;12.10;99.90;;;;;;4974088;28;20027;-63
2021/04/29 01:55:04;;;;;;;6.93;5.50;;;12.00;99.90;;;;;;4957094;28;20031;-64
2021/04/29 01:57:30;;;;;;;5.70;5.07;;;12.10;99.90;;;;;;4974126;28;20027;-64
2021/04/29 01:59:56;;;;;;;5.97;5.38;;;12.10;99.90;;;;;;4973918;28;20369;-64
2021/04/29 02:02:25;;;;;;;6.80;6.10;;;12.10;99.90;;;;;;4957017;28;20125;-64
2021/04/29 02:04:50;;;;;;;7.82;7.03;;;11.90;99.90;;;;;;4973611;28;20461;-63
2021/04/29 02:07:17;;;;;;;8.82;7.28;;;12.00;99.90;;;;;;4974530;28;20038;-64
2021/04/29 02:09:43;;;;;;;9.88;7.22;;;12.00;99.90;;;;;;4956264;28;20022;-63
2021/04/29 02:12:10;;;;;;;9.43;7.50;;;11.90;99.90;;;;;;4974311;28;20038;-63
2021/04/29 02:14:52;;;;;;;10.30;7.47;;;12.00;99.90;;;;;;4973605;28;20129;-63
2021/04/29 02:17:44;;;;;;;8.55;7.65;;;11.90;99.90;;;;;;4974143;28;20122;-63
2021/04/29 02:20:13;;;;;;;9.77;7.60;;;11.90;99.90;;;;;;4956785;28;20456;-62
2021/04/29 02:22:41;;;;;;;9.05;7.65;;;11.90;99.90;;;;;;4956798;28;20022;-63
2021/04/29 02:25:09;;;;;;;8.25;7.35;;;12.00;99.90;;;;;;4973853;28;20026;-63
2021/04/29 02:27:35;;;;;;;8.95;7.20;;;12.00;99.90;;;;;;4973891;28;20037;-63
2021/04/29 02:30:08;;;;;;;9.98;7.97;;;12.00;99.90;;;;;;4955634;28;20030;-63
2021/04/29 02:32:34;;;;;;;11.30;7.10;;;12.00;99.90;;;;;;4955901;28;20447;-63
2021/04/29 02:35:01;;;;;;;10.48;7.18;;;11.90;99.90;;;;;;4973277;28;20465;-64
2021/04/29 02:37:27;;;;;;;9.02;6.90;;;12.00;99.90;;;;;;4973571;28;20026;-63
2021/04/29 02:39:53;;;;;;;9.15;7.22;;;12.00;99.90;;;;;;4972582;28;20026;-63
2021/04/29 02:42:19;;;;;;;11.07;7.03;;;12.00;99.90;;;;;;4956323;28;20029;-64
2021/04/29 02:44:45;;;;;;;11.85;8.15;;;11.90;99.90;;;;;;4971662;28;20046;-63
2021/04/29 02:47:11;;;;;;;8.32;6.82;;;11.90;99.90;;;;;;4973541;28;20054;-63
2021/04/29 02:49:36;;;;;;;9.90;7.07;;;11.90;99.90;;;;;;4973235;28;20027;-62
2021/04/29 02:52:02;;;;;;;9.45;6.63;;;11.90;99.90;;;;;;4972375;28;20456;-63
2021/04/29 02:54:29;;;;;;;8.23;6.15;;;12.00;99.90;;;;;;4955532;28;20039;-63
2021/04/29 02:56:54;;;;;;;8.50;7.15;;;11.90;99.90;;;;;;4955063;28;20023;-63
2021/04/29 02:59:20;;;;;;;9.40;6.97;;;12.10;99.90;;;;;;4973198;28;20034;-63
2021/04/29 03:01:45;;;;;;;7.80;6.50;;;11.90;99.90;;;;;;4955217;28;20023;-62
2021/04/29 03:04:11;;;;;;;11.60;7.18;;;12.00;99.90;;;;;;4955663;28;20035;-63
2021/04/29 03:06:37;;;;;;;7.70;6.90;;;11.90;99.90;;;;;;4973126;28;20058;-63
2021/04/29 03:09:04;;;;;;;10.00;7.32;;;11.90;99.90;;;;;;4954952;28;20023;-64
2021/04/29 03:11:32;;;;;;;7.60;6.80;;;12.00;99.90;;;;;;4955198;28;20023;-62
2021/04/29 03:13:58;;;;;;;10.32;7.10;;;11.80;99.90;;;;;;4954779;28;20035;-63
2021/04/29 03:16:23;;;;;;;7.65;6.93;;;11.70;99.90;;;;;;4955639;28;20037;-64
2021/04/29 03:18:49;;;;;;;9.07;7.20;;;11.80;99.90;;;;;;4972026;28;20034;-64
2021/04/29 03:21:14;;;;;;;9.13;7.18;;;11.70;99.90;;;;;;4973142;28;20185;-64
2021/04/29 03:23:40;;;;;;;9.07;6.50;;;11.50;99.90;;;;;;4973195;28;20034;-63
2021/04/29 03:26:06;;;;;;;13.75;7.00;;;11.60;99.90;;;;;;4954869;28;20019;-63
2021/04/29 03:28:31;;;;;;;9.50;6.65;;;11.40;99.90;;;;;;4955063;28;20332;-64
2021/04/29 03:30:57;;;;;;;11.68;7.53;;;11.40;99.90;;;;;;4972068;28;20058;-63
2021/04/29 03:33:23;;;;;;;7.90;7.10;;;11.30;99.90;;;;;;4972690;28;20097;-64
2021/04/29 03:35:49;;;;;;;7.43;6.60;;;11.30;99.90;;;;;;4954614;28;20065;-63
2021/04/29 03:38:15;;;;;;;7.47;6.70;;;11.20;99.90;;;;;;4972693;28;20085;-64
2021/04/29 03:40:40;;;;;;;10.85;7.03;;;11.40;99.90;;;;;;4972235;28;20062;-63
2021/04/29 03:43:06;;;;;;;8.23;7.28;;;11.50;99.90;;;;;;4954076;28;20080;-64
2021/04/29 03:45:32;;;;;;;8.52;7.10;;;11.40;99.90;;;;;;4954913;28;20039;-64
2021/04/29 03:47:59;;;;;;;14.13;8.10;;;11.40;99.90;;;;;;4971687;28;20023;-63
2021/04/29 03:50:25;;;;;;;8.98;8.07;;;11.40;99.90;;;;;;4972352;28;20453;-64
2021/04/29 03:52:50;;;;;;;11.27;7.55;;;11.40;99.90;;;;;;4954310;28;20026;-64
2021/04/29 03:55:16;;;;;;;9.50;8.35;;;11.30;99.90;;;;;;4972066;28;20478;-63
2021/04/29 03:57:42;;;;;;;12.85;8.93;;;11.20;99.90;;;;;;4972164;28;20027;-63
2021/04/29 04:00:08;;;;;;;11.00;8.20;;;11.30;99.90;;;;;;4954148;28;20023;-64
2021/04/29 04:02:34;;;;;;;11.18;8.43;;;11.30;99.90;;;;;;4954808;28;20157;-64
2021/04/29 04:05:00;;;;;;;10.50;7.88;;;11.40;99.90;;;;;;4953856;28;20121;-63
2021/04/29 04:07:26;;;;;;;11.85;8.85;;;11.40;99.90;;;;;;4972100;28;20038;-64
2021/04/29 04:09:51;;;;;;;10.93;8.50;;;11.50;99.90;;;;;;4971773;28;20027;-65
2021/04/29 04:12:17;;;;;;;9.05;8.15;;;11.40;99.90;;;;;;4971739;28;20026;-64
2021/04/29 04:14:42;;;;;;;9.95;7.93;;;11.30;99.90;;;;;;4971541;28;20027;-63
2021/04/29 04:17:08;;;;;;;10.95;8.05;;;11.30;99.90;;;;;;4971604;28;20359;-63
2021/04/29 04:19:34;;;;;;;11.85;8.48;;;11.20;99.90;;;;;;4954478;28;20480;-64
2021/04/29 04:21:59;;;;;;;11.20;7.60;;;11.20;99.90;;;;;;4971199;28;20061;-64
2021/04/29 04:24:25;;;;;;;9.98;8.07;;;11.10;99.90;;;;;;4972108;28;20071;-64
2021/04/29 04:26:51;;;;;;;14.85;8.50;;;11.30;99.90;;;;;;4971137;28;20023;-64
2021/04/29 04:29:16;;;;;;;11.52;9.50;;;11.30;99.90;;;;;;4954445;28;20023;-63
2021/04/29 04:31:42;;;;;;;14.60;7.88;;;11.20;99.90;;;;;;4971923;28;20372;-64
2021/04/29 04:34:08;;;;;;;11.00;8.20;;;11.40;99.90;;;;;;4972019;28;20035;-63
2021/04/29 04:36:33;;;;;;;10.68;8.65;;;11.30;99.90;;;;;;4972477;28;20043;-64
2021/04/29 04:39:01;;;;;;;9.73;8.23;;;11.30;99.90;;;;;;4971489;28;20093;-62
2021/04/29 04:41:27;;;;;;;12.95;9.63;;;11.40;99.90;;;;;;4971916;28;20113;-64
2021/04/29 04:43:53;;;;;;;12.40;9.32;;;11.20;99.90;;;;;;4970905;28;20046;-63
2021/04/29 04:46:19;;;;;;;12.82;9.32;;;11.30;99.90;;;;;;4954374;28;20023;-65
2021/04/29 04:48:44;;;;;;;11.35;9.10;;;11.30;99.90;;;;;;4971669;28;20050;-64
2021/04/29 04:51:10;;;;;;;15.95;11.55;;;11.30;99.90;;;;;;4970988;28;20483;-63
2021/04/29 04:53:36;;;;;;;14.80;11.02;;;11.30;99.90;;;;;;4954989;28;20027;-64
2021/04/29 04:56:01;;;;;;;15.75;12.60;;;11.30;99.90;;;;;;4972763;28;20471;-64
2021/04/29 04:58:27;;;;;;;14.00;11.75;;;11.30;99.90;;;;;;4973823;28;20078;-65
2021/04/29 05:00:53;;;;;;;18.83;13.60;;;11.30;99.90;;;;;;4972819;28;20503;-64
2021/04/29 05:03:18;;;;;;;16.35;13.10;;;11.30;99.90;;;;;;4955382;28;20065;-64
2021/04/29 05:05:45;;;;;;;15.48;12.13;;;11.40;99.90;;;;;;4955477;28;20372;-64
2021/04/29 05:08:11;;;;;;;15.85;13.05;;;11.30;99.90;;;;;;4972171;28;20054;-63
2021/04/29 05:10:37;;;;;;;16.08;13.95;;;11.30;99.90;;;;;;4975845;28;20038;-64
2021/04/29 05:13:04;;;;;;;16.80;13.50;;;11.30;99.90;;;;;;4975638;28;20027;-63
2021/04/29 05:15:31;;;;;;;15.52;13.50;;;11.30;99.90;;;;;;4957324;28;20038;-63
2021/04/29 05:17:57;;;;;;;17.02;13.32;;;11.30;99.90;;;;;;4974874;28;20023;-63
2021/04/29 05:20:23;;;;;;;16.50;12.38;;;11.40;99.90;;;;;;4957807;28;20453;-64
2021/04/29 05:22:50;;;;;;;16.90;12.55;;;11.60;99.90;;;;;;4974830;28;20031;-63
2021/04/29 05:25:20;;;;;;;17.45;12.90;;;11.60;99.90;;;;;;4956932;28;20034;-64
2021/04/29 05:27:46;;;;;;;18.73;12.43;;;11.60;99.90;;;;;;4975110;28;20022;-63
2021/04/29 05:30:12;;;;;;;19.00;13.45;;;11.70;99.90;;;;;;4957483;28;20030;-63
2021/04/29 05:32:38;;;;;;;13.23;11.52;;;11.70;99.90;;;;;;4958116;28;20023;-63
2021/04/29 05:35:05;;;;;;;15.77;12.77;;;11.80;99.90;;;;;;4974512;28;20033;-63
2021/04/29 05:37:31;;;;;;;15.95;12.85;;;11.90;99.90;;;;;;4957543;28;20025;-64
2021/04/29 05:39:56;;;;;;;15.00;11.85;;;12.00;99.90;;;;;;4956292;28;20109;-63
2021/04/29 05:42:22;;;;;;;19.00;13.23;;;12.00;99.90;;;;;;4972503;28;20034;-64
2021/04/29 05:44:48;;;;;;;14.20;10.88;;;12.00;99.90;;;;;;4952386;29;20133;-64
2021/04/29 05:47:14;;;;;;;16.05;11.50;;;12.10;99.90;;;;;;4953795;28;20032;-70
2021/04/29 05:49:42;;;;;;;13.05;9.80;;;12.10;99.90;;;;;;4954108;28;20035;-66
2021/04/29 05:52:08;;;;;;;16.85;10.50;;;12.00;99.90;;;;;;4953608;29;20031;-66
2021/04/29 05:54:35;;;;;;;14.73;10.80;;;12.00;99.90;;;;;;4952872;29;20034;-65
2021/04/29 05:57:02;;;;;;;12.77;10.35;;;12.00;99.90;;;;;;4952131;29;20504;-64
2021/04/29 05:59:28;;;;;;;14.30;10.82;;;12.00;99.90;;;;;;4952155;29;20433;-65
2021/04/29 06:01:54;;;;;;;22.15;10.85;;;12.10;99.90;;;;;;4953635;28;20027;-65
2021/04/29 06:04:20;;;;;;;11.95;8.90;;;12.30;99.90;;;;;;4951159;29;20118;-62
2021/04/29 06:06:48;;;;;;;13.63;8.27;;;12.50;99.90;;;;;;4950900;29;20401;-64
2021/04/29 06:09:14;;;;;;;10.65;8.13;;;13.00;99.90;;;;;;4952349;29;20020;-63
2021/04/29 06:11:39;;;;;;;12.93;8.27;;;13.30;99.90;;;;;;4952921;29;20082;-63
2021/04/29 06:14:05;;;;;;;12.88;9.38;;;13.40;99.90;;;;;;4950443;29;20043;-63
2021/04/29 06:16:31;;;;;;;11.65;7.88;;;13.60;99.90;;;;;;4935255;29;20114;-63
2021/04/29 06:18:57;;;;;;;15.07;9.85;;;13.60;99.90;;;;;;4952020;28;20062;-74
2021/04/29 06:21:23;;;;;;;12.60;9.50;;;13.70;99.90;;;;;;4951043;29;20031;-62
2021/04/29 06:23:49;;;;;;;13.63;8.93;;;13.60;99.90;;;;;;4951433;29;20023;-63
2021/04/29 06:26:15;;;;;;;13.25;9.40;;;13.60;99.90;;;;;;4952214;29;20102;-63
2021/04/29 06:28:40;;;;;;;11.98;9.75;;;13.40;99.90;;;;;;4948964;29;20024;-63
2021/04/29 06:31:06;;;;;;;12.05;9.90;;;13.20;99.90;;;;;;4935029;29;20042;-62
2021/04/29 06:33:32;;;;;;;13.43;9.23;;;12.90;99.90;;;;;;4951496;28;20063;-62
2021/04/29 06:35:57;;;;;;;10.27;9.07;;;12.90;99.90;;;;;;4950986;29;20023;-74
2021/04/29 06:38:23;;;;;;;16.13;11.07;;;13.20;99.90;;;;;;4951354;29;20019;-65
2021/04/29 06:40:49;;;;;;;15.90;10.68;;;12.80;99.90;;;;;;4950735;28;20035;-69
2021/04/29 06:43:15;;;;;;;13.23;10.48;;;12.60;99.90;;;;;;4950374;29;20155;-64
2021/04/29 06:45:41;;;;;;;15.60;10.90;;;12.50;99.90;;;;;;4953302;29;20143;-63
2021/04/29 06:48:08;;;;;;;13.48;11.07;;;12.60;99.90;;;;;;4950952;28;20377;-68
2021/04/29 06:50:35;;;;;;;13.68;10.07;;;12.60;99.90;;;;;;4952745;28;20029;-63
2021/04/29 06:53:01;;;;;;;12.50;9.27;;;12.80;99.90;;;;;;4952194;28;20019;-65
2021/04/29 06:55:27;;;;;;;12.05;9.85;;;13.10;99.90;;;;;;4950134;29;20138;-66
2021/04/29 06:57:52;;;;;;;12.00;9.27;;;13.40;99.90;;;;;;4951020;29;20027;-64
2021/04/29 07:00:19;;;;;;;11.38;8.98;;;13.50;99.90;;;;;;4951811;28;20030;-65
2021/04/29 07:02:45;;;;;;;16.55;8.85;;;13.70;99.90;;;;;;4950812;29;20528;-65
2021/04/29 07:05:12;;;;;;;9.38;7.72;;;13.70;99.90;;;;;;4951788;28;20086;-65
2021/04/29 07:07:38;;;;;;;11.00;7.15;;;14.10;99.90;;;;;;4950689;29;20038;-66
2021/04/29 07:10:04;;;;;;;15.63;9.68;;;14.40;99.90;;;;;;4949795;28;20023;-63
2021/04/29 07:12:30;;;;;;;15.02;8.82;;;14.30;99.90;;;;;;4951876;28;20015;-64
2021/04/29 07:14:55;;;;;;;17.52;8.75;;;14.20;99.90;;;;;;4950449;29;20376;-63
2021/04/29 07:17:21;;;;;;;15.73;8.43;;;14.10;99.90;;;;;;4951532;29;20034;-63
2021/04/29 07:19:47;;;;;;;11.52;7.85;;;13.90;99.90;;;;;;4951887;28;20034;-63
2021/04/29 07:22:13;;;;;;;11.48;8.25;;;13.90;99.90;;;;;;4951138;28;20125;-67
2021/04/29 07:24:40;;;;;;;14.85;8.95;;;13.90;99.90;;;;;;4951950;28;20457;-66
2021/04/29 07:27:06;;;;;;;14.30;8.20;;;13.80;99.90;;;;;;4951002;29;20087;-63
2021/04/29 07:29:34;;;;;;;10.45;7.60;;;13.80;99.90;;;;;;4952039;29;20023;-65
2021/04/29 07:32:00;;;;;;;9.18;7.80;;;14.10;99.90;;;;;;4950830;28;20020;-66
2021/04/29 07:34:26;;;;;;;12.55;7.43;;;14.20;99.90;;;;;;4949847;29;20031;-63
2021/04/29 07:36:52;;;;;;;9.80;7.68;;;13.90;99.90;;;;;;4950153;28;20042;-64
2021/04/29 07:39:18;;;;;;;10.18;7.47;;;14.00;99.90;;;;;;4950735;29;20123;-64
2021/04/29 07:41:43;;;;;;;13.68;7.43;;;13.80;99.90;;;;;;4951303;28;20031;-65
2021/04/29 07:44:09;;;;;;;15.10;7.45;;;13.80;99.90;;;;;;4960684;28;20207;-67
2021/04/29 07:46:35;;;;;;;10.82;7.53;;;13.90;99.90;;;;;;4951971;28;20032;-67
2021/04/29 07:49:01;;;;;;;8.52;6.90;;;13.80;99.90;;;;;;4966100;28;20034;-65
2021/04/29 07:51:27;;;;;;;9.60;6.78;;;13.80;99.90;;;;;;4952811;28;20037;-64
2021/04/29 07:53:53;;;;;;;9.82;6.97;;;13.80;99.90;;;;;;4952690;28;20030;-64
2021/04/29 07:56:19;;;;;;;12.90;7.10;;;13.70;99.90;;;;;;4951914;28;20382;-64
2021/04/29 07:58:45;;;;;;;10.23;7.70;;;13.70;99.90;;;;;;4970189;28;20030;-65
2021/04/29 08:01:10;;;;;;;15.25;6.63;;;13.80;99.90;;;;;;4970046;28;20414;-66
2021/04/29 08:03:36;;;;;;;7.38;6.53;;;13.70;99.90;;;;;;4970057;28;20026;-65
2021/04/29 08:06:02;;;;;;;13.10;6.68;;;13.60;99.90;;;;;;4951890;28;20042;-69
2021/04/29 08:08:28;;;;;;;10.68;7.20;;;13.70;99.90;;;;;;4970156;28;20054;-65
2021/04/29 08:10:54;;;;;;;12.32;7.30;;;13.60;99.90;;;;;;4952879;28;20030;-65
2021/04/29 08:13:19;;;;;;;9.52;6.57;;;13.70;99.90;;;;;;4951680;28;20473;-63
2021/04/29 08:15:45;;;;;;;13.98;6.43;;;13.90;99.90;;;;;;4952929;28;20030;-65
2021/04/29 08:18:11;;;;;;;11.27;7.90;;;14.10;99.90;;;;;;4951919;28;20121;-66
2021/04/29 08:20:40;;;;;;;10.13;6.05;;;14.30;99.90;;;;;;4951876;28;20525;-64
2021/04/29 08:23:07;;;;;;;10.20;6.50;;;14.70;99.90;;;;;;4959842;28;20042;-62
2021/04/29 08:25:33;;;;;;;10.48;6.70;;;14.80;99.90;;;;;;4968411;28;20121;-62
2021/04/29 08:27:59;;;;;;;9.65;6.40;;;15.60;99.90;;;;;;4968298;28;20054;-68
2021/04/29 08:30:29;;;;;;;13.23;6.75;;;15.40;99.90;;;;;;4969158;28;20086;-67
2021/04/29 08:32:56;;;;;;;8.23;6.40;;;15.30;99.90;;;;;;4968008;28;20105;-67
2021/04/29 08:35:22;;;;;;;10.43;6.75;;;15.10;99.90;;;;;;4969026;28;20054;-67
2021/04/29 08:37:49;;;;;;;9.07;6.75;;;15.10;99.90;;;;;;4969892;28;20113;-65
2021/04/29 08:40:15;;;;;;;7.45;6.65;;;15.10;99.90;;;;;;4968029;28;20031;-65
2021/04/29 08:42:44;;;;;;;11.50;7.22;;;14.80;99.90;;;;;;4963381;28;20144;-66
2021/04/29 08:45:11;;;;;;;9.75;7.03;;;14.90;99.90;;;;;;4952005;29;20051;-65
2021/04/29 08:47:37;;;;;;;7.93;6.90;;;15.00;99.90;;;;;;4953800;28;20033;-65
2021/04/29 08:50:05;;;;;;;9.75;6.72;;;15.00;99.90;;;;;;4952723;29;20470;-67
2021/04/29 08:52:33;;;;;;;9.75;7.38;;;15.20;99.90;;;;;;4952538;29;20066;-64
2021/04/29 08:54:59;;;;;;;9.05;6.93;;;15.10;99.90;;;;;;4951787;29;20043;-74
2021/04/29 08:57:25;;;;;;;11.05;7.22;;;15.30;99.90;;;;;;4952696;29;20122;-63
2021/04/29 08:59:52;;;;;;;12.80;6.65;;;15.40;99.90;;;;;;4952312;29;20461;-64
2021/04/29 09:02:34;;;;;;;16.23;7.60;;;15.50;99.90;;;;;;4953110;29;20212;-65
2021/04/29 09:05:10;;;;;;;9.25;7.32;;;15.70;99.90;;;;;;4953166;29;20074;-64
2021/04/29 09:07:35;;;;;;;10.93;7.25;;;15.60;99.90;;;;;;4953713;29;20457;-64
2021/04/29 09:10:01;;;;;;;9.38;6.78;;;15.30;99.90;;;;;;4951905;29;20114;-65
2021/04/29 09:12:34;;;;;;;9.13;6.07;;;15.00;99.90;;;;;;4951792;29;20023;-64
2021/04/29 09:15:00;;;;;;;6.93;6.03;;;15.00;99.90;;;;;;4951602;29;20448;-66
2021/04/29 09:17:26;;;;;;;8.80;5.82;;;15.20;99.70;;;;;;4952699;29;20027;-64
2021/04/29 09:19:52;;;;;;;10.57;6.43;;;15.30;99.00;;;;;;4952037;29;20065;-64
2021/04/29 09:22:20;;;;;;;8.43;6.13;;;15.30;99.00;;;;;;4951613;29;20328;-64
2021/04/29 09:24:46;;;;;;;8.18;5.68;;;15.40;98.60;;;;;;4951658;29;20046;-65
2021/04/29 09:27:20;;;;;;;9.20;5.13;;;15.40;98.90;;;;;;4951753;28;20023;-65
2021/04/29 09:29:56;;;;;;;12.05;5.60;;;15.90;97.90;;;;;;4952987;29;20050;-66
2021/04/29 09:32:29;;;;;;;7.45;5.68;;;16.00;97.40;;;;;;4952757;28;20031;-65
2021/04/29 09:34:57;;;;;;;6.28;5.07;;;16.20;96.70;;;;;;4951100;29;20083;-65
2021/04/29 09:37:30;;;;;;;12.30;5.47;;;16.20;96.50;;;;;;4951111;29;20031;-64
2021/04/29 09:39:55;;;;;;;8.57;5.28;;;16.80;96.00;;;;;;4952816;28;20087;-63
2021/04/29 09:42:36;;;;;;;5.60;4.25;;;17.20;95.20;;;;;;4950159;29;20066;-63
2021/04/29 09:45:04;;;;;;;6.63;4.32;;;17.70;91.90;;;;;;4950510;29;20070;-63
2021/04/29 09:47:31;;;;;;;4.57;4.18;;;18.10;90.70;;;;;;4951406;29;20073;-64
2021/04/29 09:49:57;;;;;;;7.05;5.00;;;18.50;98.90;;;;;;4950957;28;20058;-65
2021/04/29 09:52:25;;;;;;;6.90;4.75;;;18.00;90.00;;;;;;4952181;28;20115;-64
2021/04/29 09:54:52;;;;;;;7.28;4.80;;;17.80;89.80;;;;;;4952087;28;20110;-64
2021/04/29 09:57:28;;;;;;;9.18;5.93;;;17.90;90.00;;;;;;4950694;29;20035;-66
2021/04/29 09:59:59;;;;;;;6.43;4.43;;;18.30;86.50;;;;;;4950653;29;20028;-67
2021/04/29 10:02:28;;;;;;;6.15;3.97;;;18.50;84.20;;;;;;4950271;29;20307;-65
2021/04/29 10:04:54;;;;;;;8.15;4.53;;;18.20;81.90;;;;;;4950707;29;20126;-66
2021/04/29 10:07:22;;;;;;;5.15;4.57;;;18.20;80.60;;;;;;4951648;29;20330;-64
2021/04/29 10:09:49;;;;;;;9.32;4.18;;;18.50;79.90;;;;;;4950472;29;20047;-64
2021/04/29 10:12:16;;;;;;;5.72;4.00;;;19.10;79.30;;;;;;4950082;29;20122;-65
2021/04/29 10:14:46;;;;;;;7.82;4.80;;;19.20;78.00;;;;;;4949823;29;20087;-62
2021/04/29 10:17:15;;;;;;;5.70;3.88;;;19.60;76.70;;;;;;4951224;28;20035;-64
2021/04/29 10:19:45;;;;;;;6.80;4.18;;;19.40;73.00;;;;;;4949999;29;20034;-62
2021/04/29 10:22:12;;;;;;;4.73;3.37;;;19.00;72.90;;;;;;4950174;29;20035;-63
2021/04/29 10:24:43;;;;;;;5.07;3.65;;;19.10;70.50;;;;;;4950264;29;20674;-62
2021/04/29 10:27:12;;;;;;;3.70;3.08;;;19.00;70.20;;;;;;4949278;29;20050;-63
2021/04/29 10:29:38;;;;;;;4.82;3.00;;;19.60;69.80;;;;;;4949323;29;20238;-62
2021/04/29 10:32:10;;;;;;;5.15;3.40;;;19.10;68.90;;;;;;4950573;29;20027;-62
2021/04/29 10:34:49;;;;;;;6.30;3.63;;;19.20;70.50;;;;;;4951584;29;20531;-64
2021/04/29 10:37:27;;;;;;;6.10;3.65;;;19.60;69.90;;;;;;4949510;29;20031;-64
2021/04/29 10:39:58;;;;;;;8.13;4.07;;;19.30;64.80;;;;;;4949568;29;20412;-64
2021/04/29 10:42:28;;;;;;;6.00;3.40;;;19.10;66.00;;;;;;4950059;29;20024;-63
2021/04/29 10:45:05;;;;;;;6.63;3.92;;;18.90;68.00;;;;;;4949115;29;20054;-64
2021/04/29 10:47:31;;;;;;;6.13;4.05;;;18.20;67.40;;;;;;4949415;29;20054;-63
2021/04/29 10:50:07;;;;;;;2.88;2.00;;;18.00;68.50;;;;;;4949552;29;20400;-63
2021/04/29 10:52:44;;;;;;;3.17;1.30;;;17.70;72.10;;;;;;4949442;29;20130;-64
2021/04/29 10:55:29;;;;;;;3.25;1.20;;;16.70;74.00;;;;;;4950803;28;20055;-63
2021/04/29 10:57:56;;;;;;;4.20;1.48;;;16.30;74.70;;;;;;4948907;29;20039;-63
2021/04/29 11:00:25;;;;;;;3.97;1.00;;;16.00;75.10;;;;;;4948630;29;20031;-63
2021/04/29 11:03:03;;;;;;;5.13;0.88;;;16.20;74.10;;;;;;4949499;29;20115;-63
2021/04/29 11:05:30;;;;;;;3.42;1.27;;;16.00;74.90;;;;;;4950447;28;20045;-65
2021/04/29 11:08:06;;;;;;;1.48;1.10;;;15.90;77.20;;;;;;4948068;28;20100;-64
2021/04/29 11:10:35;;;;;;;4.40;1.23;;;15.70;78.30;;;;;;4951163;28;20081;-62
2021/04/29 11:13:02;;;;;;;2.53;1.13;;;15.50;80.30;;;;;;4947673;29;20043;-66
2021/04/29 11:15:37;;;;;;;8.25;2.33;;;15.40;82.00;;;;;;4949282;29;20465;-63
2021/04/29 11:18:08;;;;;;;8.07;1.80;;;15.40;84.90;;;;;;4947970;28;20050;-62
2021/04/29 11:20:50;;;;;;;2.97;1.63;;;15.80;85.50;;;;;;4949353;29;20031;-63
2021/04/29 11:23:25;;;;;;;4.65;1.60;;;16.30;83.00;;;;;;4948238;29;20027;-64
2021/04/29 11:25:53;;;;;;;3.08;1.50;;;16.50;80.90;;;;;;4948932;29;20426;-64
2021/04/29 11:28:28;;;;;;;2.85;1.73;;;16.90;80.00;;;;;;4949685;28;20027;-63
2021/04/29 11:30:54;;;;;;;3.70;1.50;;;17.80;79.00;;;;;;4948305;29;20027;-62
2021/04/29 11:33:20;;;;;;;2.13;1.67;;;18.10;76.40;;;;;;4949699;28;20401;-62
2021/04/29 11:35:45;;;;;;;2.53;1.58;;;18.50;73.20;;;;;;4948908;29;20442;-62
2021/04/29 11:38:13;;;;;;;7.18;1.40;;;19.10;72.90;;;;;;4948223;29;20035;-64
2021/04/29 11:40:39;;;;;;;6.72;1.92;;;19.70;68.90;;;;;;4949096;29;20027;-63
2021/04/29 11:43:06;;;;;;;2.42;2.22;;;19.60;68.60;;;;;;4950420;28;20031;-48
2021/04/29 11:45:53;;;;;;;5.15;2.00;;;20.10;71.00;;;;;;4952079;28;20062;-48
2021/04/29 11:48:24;;;;;;;6.57;3.42;;;20.00;68.70;;;;;;4950857;28;20047;-66
2021/04/29 11:50:57;;;;;;;5.00;2.30;;;19.20;65.80;;;;;;4935772;28;20038;-63
2021/04/29 11:53:31;;;;;;;5.70;2.95;;;18.20;66.70;;;;;;4969352;28;20086;-65
2021/04/29 11:56:04;;;;;;;6.80;2.30;;;17.30;72.60;;;;;;4951554;28;20141;-64
2021/04/29 11:58:30;;;;;;;7.38;1.95;;;17.90;74.60;;;;;;4952176;28;20398;-67
2021/04/29 12:00:57;;;;;;;4.72;1.92;;;18.50;70.20;;;;;;4952043;28;20098;-67
2021/04/29 12:03:26;;;;;;;3.53;1.70;;;18.90;67.00;;;;;;4951181;28;20038;-64
2021/04/29 12:05:54;;;;;;;5.40;1.80;;;18.70;62.40;;;;;;4951796;28;20062;-64
2021/04/29 12:08:24;;;;;;;3.58;2.00;;;18.60;61.80;;;;;;4920895;28;20231;-64
2021/04/29 12:10:57;;;;;;;3.13;1.70;;;18.60;61.20;;;;;;4971011;28;20474;-63
2021/04/29 12:13:49;;;;;;;2.83;1.90;;;19.00;60.80;;;;;;4952930;28;20129;-64
2021/04/29 12:16:20;;;;;;;;;;;19.10;59.50;;;;;;4953167;28;20063;-65
2021/04/29 12:18:51;;;;;;;5.28;1.83;;;19.40;59.80;;;;;;4975313;28;19917;-65
2021/04/29 12:21:21;;;;;;;8.15;2.47;;;19.60;59.70;;;;;;4941378;28;20026;-63
2021/04/29 12:23:58;;;;;;;18.05;2.60;;;19.50;58.40;;;;;;4957122;28;20027;-64
2021/04/29 12:26:39;;;;;;;3.63;2.30;;;19.50;59.50;;;;;;4975103;28;20057;-64
2021/04/29 12:29:22;;;;;;;3.97;2.15;;;19.90;58.10;;;;;;4956789;28;20491;-64
2021/04/29 12:32:06;;;;;;;5.00;2.80;;;19.90;58.50;;;;;;4957560;28;20035;-63
2021/04/29 12:34:31;;;;;;;6.78;2.80;;;18.90;58.50;;;;;;4975079;28;20118;-66
2021/04/29 12:37:03;;;;;;;3.15;2.50;;;18.70;59.60;;;;;;4956734;28;20113;-64
2021/04/29 12:39:49;;;;;;;8.88;2.55;;;18.50;60.40;;;;;;4957391;28;20061;-62
2021/04/29 12:42:19;;;;;;;6.28;2.85;;;18.60;61.40;;;;;;4973675;28;20034;-63
2021/04/29 12:44:47;;;;;;;8.13;2.75;;;19.20;60.20;;;;;;4956142;28;20385;-66